Time;durP1;ratioP1;P1;durP2;ratioP2;P2;SDS_P1;SDS_P2;PMS_P1;PMS_P2;Temp;Humidity;BMP_temperature;BMP_pressure;BME280_temperature;BME280_humidity;BME280_pressure;Samples;Min_cycle;Max_cycle;Signal;HPM_P1;HPM_P2
2022/08/04 00:01:23;;;;;;;2.08;1.70;;;;;;;27.61;42.49;100820.17;1791311;78;21049;-81
2022/08/04 00:04:22;;;;;;;2.27;1.70;;;;;;;27.61;42.50;100818.78;1762407;80;21056;-81
2022/08/04 00:07:43;;;;;;;2.35;1.60;;;;;;;27.61;42.51;100824.95;1791504;80;21104;-81
2022/08/04 00:10:10;;;;;;;2.00;1.70;;;;;;;27.60;42.52;100827.52;1811601;78;21506;-81
2022/08/04 00:12:41;;;;;;;2.55;1.57;;;;;;;27.60;42.54;100824.72;1781248;79;21025;-81
2022/08/04 00:15:10;;;;;;;2.25;1.55;;;;;;;27.59;42.57;100830.89;1781314;80;21536;-81
2022/08/04 00:17:44;;;;;;;2.35;1.85;;;;;;;27.59;42.59;100825.30;1781155;80;21006;-81
2022/08/04 00:20:12;;;;;;;2.95;1.70;;;;;;;27.59;42.61;100824.48;1781343;79;21144;-81
2022/08/04 00:22:39;;;;;;;2.42;1.70;;;;;;;27.59;42.62;100825.30;1780810;80;21551;-81
2022/08/04 00:25:06;;;;;;;2.12;1.80;;;;;;;27.59;42.65;100827.29;1781212;79;21502;-81
2022/08/04 00:27:33;;;;;;;2.33;1.77;;;;;;;27.59;42.67;100829.50;1781287;79;21456;-81
2022/08/04 00:29:59;;;;;;;2.65;1.90;;;;;;;27.60;42.65;100833.11;1780983;80;22104;-81
2022/08/04 00:32:26;;;;;;;3.70;1.82;;;;;;;27.59;42.68;100826.70;1781263;79;21971;-81
2022/08/04 00:34:56;;;;;;;2.80;1.70;;;;;;;27.59;42.68;100826.70;1781318;80;21022;-81
2022/08/04 00:37:24;;;;;;;2.17;1.57;;;;;;;27.59;42.69;100836.48;1780936;80;21045;-81
2022/08/04 00:39:54;;;;;;;2.45;1.82;;;;;;;27.60;42.70;100838.70;1781395;80;20997;-81
2022/08/04 00:42:27;;;;;;;2.37;1.80;;;;;;;27.60;42.71;100836.72;1780352;79;20997;-81
2022/08/04 00:45:47;;;;;;;2.83;2.00;;;;;;;27.60;42.70;100845.69;1751223;80;21220;-81
2022/08/04 00:48:25;;;;;;;1.95;1.40;;;;;;;27.59;42.71;100846.27;1744102;80;21068;-81
2022/08/04 00:51:36;;;;;;;2.60;1.85;;;;;;;27.58;42.70;100841.84;1744119;80;21056;-81
2022/08/04 00:54:33;;;;;;;2.00;1.62;;;;;;;27.59;42.69;100843.47;1699510;82;21072;-81
2022/08/04 00:57:10;;;;;;;2.47;1.67;;;;;;;27.58;42.70;100841.84;1753241;80;21052;-81
2022/08/04 00:59:54;;;;;;;2.42;1.90;;;;;;;27.57;42.75;100845.02;1716711;80;21085;-81
2022/08/04 01:02:35;;;;;;;2.92;1.70;;;;;;;27.57;42.75;100844.44;1754423;80;20984;-81
2022/08/04 01:05:05;;;;;;;2.47;1.62;;;;;;;27.57;42.76;100848.62;1719583;80;21463;-81
2022/08/04 01:07:53;;;;;;;2.62;1.70;;;;;;;27.57;42.79;100850.61;1721607;80;21036;-81
2022/08/04 01:10:43;;;;;;;2.22;1.80;;;;;;;27.57;42.81;100847.81;1765769;79;21029;-81
2022/08/04 01:13:24;;;;;;;2.90;1.60;;;;;;;27.56;42.80;100847.59;1765737;79;21117;-81
2022/08/04 01:16:06;;;;;;;2.00;1.60;;;;;;;27.55;42.80;100839.78;1765952;79;20958;-81
2022/08/04 01:18:53;;;;;;;2.67;1.72;;;;;;;27.56;42.84;100847.59;1764628;79;21005;-81
2022/08/04 01:21:31;;;;;;;2.40;1.55;;;;;;;27.56;42.84;100844.80;1771263;80;20998;-81
2022/08/04 01:24:25;;;;;;;2.87;1.87;;;;;;;27.55;42.84;100845.38;1779209;79;21035;-81
2022/08/04 01:27:14;;;;;;;3.77;2.00;;;;;;;27.55;42.85;100840.37;1779266;80;21548;-81
2022/08/04 01:29:52;;;;;;;2.58;1.72;;;;;;;27.55;42.84;100841.19;1778920;80;22211;-81
2022/08/04 01:32:27;;;;;;;2.50;1.90;;;;;;;27.55;42.86;100845.96;1779470;79;21023;-81
2022/08/04 01:35:07;;;;;;;2.33;1.70;;;;;;;27.55;42.88;100843.16;1770152;80;21066;-81
2022/08/04 01:38:18;;;;;;;1.87;1.70;;;;;;;27.54;42.90;100847.94;1779349;79;21050;-80
2022/08/04 01:40:45;;;;;;;3.02;1.70;;;;;;;27.54;42.91;100839.55;1779011;79;21470;-80
2022/08/04 01:43:13;;;;;;;2.90;1.80;;;;;;;27.55;42.92;100843.16;1779127;80;21423;-80
2022/08/04 01:45:40;;;;;;;2.22;1.60;;;;;;;27.54;42.93;100837.37;1779218;79;21046;-80
2022/08/04 01:48:13;;;;;;;3.60;1.98;;;;;;;27.54;42.94;100833.19;1778907;80;21031;-80
2022/08/04 01:50:39;;;;;;;3.27;1.72;;;;;;;27.54;42.98;100831.78;1779289;80;20996;-81
2022/08/04 01:53:06;;;;;;;1.98;1.70;;;;;;;27.54;42.98;100826.20;1779233;80;21350;-81
2022/08/04 01:55:32;;;;;;;3.22;1.77;;;;;;;27.54;42.99;100822.79;1778996;80;21090;-81
2022/08/04 01:57:59;;;;;;;2.60;1.80;;;;;;;27.55;42.99;100818.02;1779028;80;21019;-81
2022/08/04 02:00:27;;;;;;;3.22;2.00;;;;;;;27.55;42.98;100827.80;1779236;80;20988;-81
2022/08/04 02:02:55;;;;;;;2.22;1.60;;;;;;;27.55;43.01;100825.81;1778962;80;20999;-81
2022/08/04 02:05:24;;;;;;;2.50;1.92;;;;;;;27.55;42.99;100818.02;1779343;79;21083;-81
2022/08/04 02:08:21;;;;;;;2.33;1.90;;;;;;;27.55;43.01;100825.00;1779029;79;21580;-81
2022/08/04 02:11:05;;;;;;;3.47;1.95;;;;;;;27.55;43.02;100827.21;1778430;80;20975;-81
2022/08/04 02:13:55;;;;;;;2.60;1.70;;;;;;;27.55;43.02;100818.83;1775416;79;20985;-81
2022/08/04 02:16:29;;;;;;;2.27;1.95;;;;;;;27.56;43.01;100822.44;1778559;79;20984;-81
2022/08/04 02:19:30;;;;;;;3.05;2.02;;;;;;;27.55;43.02;100826.39;1756319;80;22141;-81
2022/08/04 02:22:06;;;;;;;2.50;1.70;;;;;;;27.55;43.03;100830.00;1778554;79;20975;-81
2022/08/04 02:24:32;;;;;;;2.45;1.95;;;;;;;27.54;43.03;100824.80;1778858;79;21027;-81
2022/08/04 02:27:05;;;;;;;2.87;1.70;;;;;;;27.55;43.03;100823.60;1778683;79;21028;-81
2022/08/04 02:29:52;;;;;;;3.17;1.62;;;;;;;27.54;43.05;100824.80;1782065;80;21560;-80
2022/08/04 02:32:24;;;;;;;2.30;1.62;;;;;;;27.54;43.05;100826.98;1778511;80;21160;-81
2022/08/04 02:35:02;;;;;;;2.22;1.80;;;;;;;27.54;43.05;100822.01;1773404;79;21451;-81
2022/08/04 02:37:30;;;;;;;3.17;1.85;;;;;;;27.54;43.09;100824.80;1774801;80;21039;-81
2022/08/04 02:40:00;;;;;;;;;;;;;;;27.53;43.09;100816.19;1777514;79;21068;-81
2022/08/04 02:42:30;;;;;;;3.15;1.92;;;;;;;27.53;43.11;100822.59;1775070;80;20457;-81
2022/08/04 02:44:58;;;;;;;3.07;1.90;;;;;;;27.52;43.11;100817.36;1775480;80;21068;-80
2022/08/04 02:47:26;;;;;;;2.33;1.60;;;;;;;27.52;43.13;100818.17;1774609;80;21088;-81
2022/08/04 02:49:52;;;;;;;3.70;2.00;;;;;;;27.52;43.14;100815.95;1775010;80;21008;-81
2022/08/04 02:52:19;;;;;;;2.02;1.80;;;;;;;27.53;43.13;100818.98;1774816;80;21013;-80
2022/08/04 02:54:52;;;;;;;2.17;1.60;;;;;;;27.53;43.16;100818.98;1774718;79;21080;-80
2022/08/04 02:57:18;;;;;;;2.00;1.70;;;;;;;27.53;43.17;100812.00;1774880;79;21243;-81
2022/08/04 03:00:14;;;;;;;3.52;2.00;;;;;;;27.52;43.16;100816.77;1751109;80;21001;-81
2022/08/04 03:03:12;;;;;;;2.65;1.90;;;;;;;27.54;43.16;100815.02;1774491;80;21075;-81
2022/08/04 03:06:13;;;;;;;2.00;1.60;;;;;;;27.53;43.16;100823.98;1775048;80;21063;-81
2022/08/04 03:09:19;;;;;;;1.98;1.77;;;;;;;27.53;43.17;100821.78;1766776;78;21528;-81
2022/08/04 03:12:13;;;;;;;2.10;1.82;;;;;;;27.53;43.16;100818.98;1774925;79;21924;-82
2022/08/04 03:15:09;;;;;;;2.40;1.70;;;;;;;27.52;43.17;100824.34;1774649;79;20981;-81
2022/08/04 03:18:33;;;;;;;2.62;1.77;;;;;;;27.51;43.19;100825.50;1774969;80;21475;-81
2022/08/04 03:21:46;;;;;;;2.05;1.50;;;;;;;27.50;43.20;100828.88;1749758;80;21009;-81
2022/08/04 03:24:45;;;;;;;2.85;1.75;;;;;;;27.49;43.21;100825.89;1750178;82;21506;-81
2022/08/04 03:27:22;;;;;;;1.75;1.62;;;;;;;27.49;43.21;100828.69;1773861;79;21896;-81
2022/08/04 03:30:07;;;;;;;2.50;1.85;;;;;;;27.48;43.24;100834.05;1774986;80;21044;-81
2022/08/04 03:33:14;;;;;;;2.70;1.87;;;;;;;27.48;43.26;100827.64;1774662;79;21032;-81
2022/08/04 03:36:03;;;;;;;2.50;1.80;;;;;;;27.50;43.29;100833.08;1774884;80;21083;-81
2022/08/04 03:38:47;;;;;;;2.83;1.95;;;;;;;27.48;43.28;100830.44;1774618;80;21028;-81
2022/08/04 03:41:49;;;;;;;1.90;1.70;;;;;;;27.48;43.32;100829.03;1775322;80;21008;-81
2022/08/04 03:44:47;;;;;;;2.12;1.77;;;;;;;27.48;43.32;100829.03;1773607;80;21016;-81
2022/08/04 03:47:24;;;;;;;2.92;2.02;;;;;;;27.47;43.32;100830.17;1775029;79;21016;-81
2022/08/04 03:50:25;;;;;;;2.27;1.77;;;;;;;27.48;43.34;100830.44;1774609;80;21076;-81
2022/08/04 03:53:17;;;;;;;3.10;2.22;;;;;;;27.48;43.34;100833.23;1775041;80;21099;-81
2022/08/04 03:56:12;;;;;;;3.12;1.85;;;;;;;27.48;43.37;100838.81;1774215;79;21753;-80
2022/08/04 03:59:05;;;;;;;2.20;1.57;;;;;;;27.48;43.36;100834.63;1774807;80;21561;-81
2022/08/04 04:02:04;;;;;;;2.50;1.95;;;;;;;27.48;43.37;100831.83;1774757;80;21012;-81
2022/08/04 04:04:51;;;;;;;2.47;1.80;;;;;;;27.48;43.39;100834.63;1750409;81;21065;-81
2022/08/04 04:07:40;;;;;;;2.17;1.65;;;;;;;27.47;43.41;100836.61;1750111;82;20954;-81
2022/08/04 04:10:30;;;;;;;2.85;2.17;;;;;;;27.46;43.42;100835.53;1767384;79;21154;-81
2022/08/04 04:13:31;;;;;;;2.65;1.60;;;;;;;27.47;43.44;100833.81;1774162;80;21055;-81
2022/08/04 04:16:36;;;;;;;2.62;2.15;;;;;;;27.48;43.41;100838.23;1774082;80;21103;-81
2022/08/04 04:19:45;;;;;;;2.60;2.10;;;;;;;27.47;43.44;100842.20;1774128;80;21087;-81
2022/08/04 04:23:11;;;;;;;3.00;1.90;;;;;;;27.48;43.43;100845.22;1774609;79;21025;-81
2022/08/04 04:26:11;;;;;;;2.37;1.80;;;;;;;27.48;43.45;100838.81;1682238;84;21206;-81
2022/08/04 04:28:49;;;;;;;3.58;1.80;;;;;;;27.48;43.41;100844.41;1682729;84;21053;-81
2022/08/04 04:31:35;;;;;;;3.87;2.20;;;;;;;27.46;43.39;100840.53;1730664;82;21539;-81
2022/08/04 04:34:46;;;;;;;3.30;2.10;;;;;;;27.46;43.41;100840.53;1743990;82;21020;-81
2022/08/04 04:37:36;;;;;;;3.12;2.00;;;;;;;27.48;43.38;100840.22;1743372;82;21087;-81
2022/08/04 04:40:23;;;;;;;2.22;1.60;;;;;;;27.47;43.39;100843.59;1743125;82;21296;-81
2022/08/04 04:43:22;;;;;;;2.95;2.20;;;;;;;27.48;43.40;100844.41;1742957;82;21693;-81
2022/08/04 04:46:28;;;;;;;3.12;2.10;;;;;;;27.48;43.39;100852.79;1743432;80;21060;-81
2022/08/04 04:49:15;;;;;;;1.95;1.60;;;;;;;27.48;43.40;100849.41;1743464;80;21275;-81
2022/08/04 04:52:01;;;;;;;2.35;1.90;;;;;;;27.49;43.40;100851.04;1743672;82;21052;-81
2022/08/04 04:54:35;;;;;;;2.47;2.00;;;;;;;27.49;43.40;100857.22;1743529;81;21166;-81
2022/08/04 04:57:19;;;;;;;1.75;1.60;;;;;;;27.49;43.40;100851.04;1743638;82;20973;-81
2022/08/04 04:59:51;;;;;;;2.20;1.70;;;;;;;27.49;43.40;100852.44;1760105;80;21063;-80
2022/08/04 05:02:41;;;;;;;6.55;2.12;;;;;;;27.49;43.40;100851.04;1774439;80;21508;-81
2022/08/04 05:05:21;;;;;;;3.92;1.90;;;;;;;27.50;43.39;100851.24;1756608;79;21036;-80
2022/08/04 05:08:13;;;;;;;3.23;2.00;;;;;;;27.49;43.43;100860.82;1774453;80;21146;-81
2022/08/04 05:11:18;;;;;;;3.47;2.02;;;;;;;27.48;43.45;100863.39;1768324;80;21292;-80
2022/08/04 05:13:48;;;;;;;2.58;1.65;;;;;;;27.48;43.49;100861.17;1751283;81;21077;-80
2022/08/04 05:16:20;;;;;;;3.22;2.10;;;;;;;27.46;43.50;100862.89;1780300;79;21067;-81
2022/08/04 05:18:50;;;;;;;4.03;2.35;;;;;;;27.48;43.54;100868.16;1780716;79;21404;-81
2022/08/04 05:21:34;;;;;;;3.55;2.10;;;;;;;27.48;43.51;100871.77;1780260;80;21692;-81
2022/08/04 05:24:05;;;;;;;2.95;2.05;;;;;;;27.48;43.53;100868.16;1780807;80;21102;-80
2022/08/04 05:26:34;;;;;;;3.75;1.80;;;;;;;27.48;43.54;100876.55;1780708;79;21614;-80
2022/08/04 05:29:06;;;;;;;5.70;2.00;;;;;;;27.47;43.54;100874.33;1776014;80;21025;-80
2022/08/04 05:31:36;;;;;;;2.75;2.05;;;;;;;27.48;43.54;100882.95;1763821;80;21000;-80
2022/08/04 05:34:14;;;;;;;3.85;1.95;;;;;;;27.46;43.59;100876.05;1770415;80;21666;-80
2022/08/04 05:36:49;;;;;;;5.67;2.22;;;;;;;27.48;43.60;100873.75;1773903;80;21072;-80
2022/08/04 05:39:26;;;;;;;4.17;1.95;;;;;;;27.47;43.60;100872.94;1784549;78;21499;-81
2022/08/04 05:41:59;;;;;;;4.17;1.95;;;;;;;27.47;43.63;100874.33;1789879;79;21042;-80
2022/08/04 05:44:25;;;;;;;3.77;1.90;;;;;;;27.47;43.63;100877.13;1786284;79;21569;-80
2022/08/04 05:46:56;;;;;;;3.42;2.12;;;;;;;27.48;43.62;100880.73;1773994;80;21661;-80
2022/08/04 05:49:23;;;;;;;4.45;2.10;;;;;;;27.48;43.66;100877.94;1779908;80;21044;-80
2022/08/04 05:51:51;;;;;;;6.08;2.30;;;;;;;27.48;43.69;100876.55;1766753;80;21094;-80
2022/08/04 05:54:17;;;;;;;4.67;2.10;;;;;;;27.49;43.69;100883.77;1788922;78;22019;-80
2022/08/04 05:56:44;;;;;;;3.65;2.25;;;;;;;27.48;43.71;100881.55;1789175;78;21024;-80
2022/08/04 05:59:10;;;;;;;5.67;2.47;;;;;;;27.49;43.68;100887.37;1766826;80;21164;-81
2022/08/04 06:01:37;;;;;;;5.03;2.40;;;;;;;27.48;43.70;100886.33;1789009;78;21004;-81
2022/08/04 06:04:03;;;;;;;6.03;2.42;;;;;;;27.48;43.64;100886.33;1789058;78;21545;-81
2022/08/04 06:06:30;;;;;;;3.65;2.77;;;;;;;27.47;43.62;100888.30;1788826;80;21537;-81
2022/08/04 06:08:57;;;;;;;4.80;2.62;;;;;;;27.44;43.59;100889.00;1767156;80;21570;-81
2022/08/04 06:11:26;;;;;;;6.25;2.62;;;;;;;27.44;43.63;100889.00;1761985;79;21919;-81
2022/08/04 06:13:57;;;;;;;5.00;2.35;;;;;;;27.45;43.66;100887.84;1760336;79;21055;-81
2022/08/04 06:16:26;;;;;;;3.90;2.17;;;;;;;27.47;43.60;100889.70;1774128;79;21072;-81
2022/08/04 06:18:53;;;;;;;4.28;2.17;;;;;;;27.45;43.60;100887.84;1775640;79;21550;-82
2022/08/04 06:21:21;;;;;;;5.70;2.50;;;;;;;27.46;43.60;100884.44;1774383;79;21581;-82
2022/08/04 06:23:49;;;;;;;5.00;2.50;;;;;;;27.47;43.62;100882.72;1774803;80;21446;-81
2022/08/04 06:26:18;;;;;;;3.55;1.80;;;;;;;27.48;43.58;100877.94;1774604;80;21487;-81
2022/08/04 06:28:48;;;;;;;3.95;2.20;;;;;;;27.48;43.56;100875.96;1774622;78;20985;-81
2022/08/04 06:31:20;;;;;;;3.75;2.50;;;;;;;27.50;43.55;100878.38;1739983;80;21331;-83
2022/08/04 06:33:45;;;;;;;3.60;2.50;;;;;;;27.51;43.52;100878.02;1772553;79;21052;-81
2022/08/04 06:36:12;;;;;;;3.95;2.47;;;;;;;27.51;43.49;100875.81;1751115;80;21097;-81
2022/08/04 06:38:39;;;;;;;4.00;2.15;;;;;;;27.52;43.47;100876.04;1746705;82;21616;-81
2022/08/04 06:41:08;;;;;;;3.92;2.10;;;;;;;27.54;43.44;100875.11;1753294;80;21130;-81
2022/08/04 06:43:34;;;;;;;3.65;2.15;;;;;;;27.54;43.41;100880.08;1763565;80;21072;-81
2022/08/04 06:46:01;;;;;;;4.37;2.02;;;;;;;27.55;43.35;100873.91;1777898;80;21536;-81
2022/08/04 06:48:27;;;;;;;10.93;2.77;;;;;;;27.55;43.35;100876.12;1777860;79;21981;-81
2022/08/04 06:50:54;;;;;;;83.85;12.03;;;;;;;27.55;43.31;100880.31;1759872;80;21502;-81
2022/08/04 06:53:20;;;;;;;94.47;12.53;;;;;;;27.54;43.30;100877.90;1778007;80;21024;-81
2022/08/04 06:55:47;;;;;;;62.75;10.32;;;;;;;27.52;43.28;100878.25;1762258;80;21274;-81
2022/08/04 06:58:14;;;;;;;61.35;9.83;;;;;;;27.51;43.24;100878.02;1717563;82;21008;-82
2022/08/04 07:00:42;;;;;;;54.53;8.88;;;;;;;27.48;43.22;100874.56;1742105;81;21973;-80
2022/08/04 07:03:08;;;;;;;44.88;8.93;;;;;;;27.48;43.19;100875.96;1774812;80;21080;-81
2022/08/04 07:05:35;;;;;;;31.55;6.17;;;;;;;27.47;43.19;100874.33;1687113;84;21484;-81
2022/08/04 07:08:01;;;;;;;24.87;5.20;;;;;;;27.47;43.01;100879.08;1776222;80;21084;-81
2022/08/04 07:10:29;;;;;;;47.25;8.45;;;;;;;27.44;42.89;100872.83;1755993;79;21556;-81
2022/08/04 07:12:56;;;;;;;42.00;8.15;;;;;;;27.44;42.96;100872.23;1791036;80;21183;-80
2022/08/04 07:15:23;;;;;;;35.60;6.85;;;;;;;27.46;42.96;100874.07;1768297;80;21568;-81
2022/08/04 07:17:50;;;;;;;37.67;7.22;;;;;;;27.46;42.95;100873.25;1720241;83;21072;-80
2022/08/04 07:20:18;;;;;;;35.28;6.35;;;;;;;27.45;42.94;100871.66;1779026;80;21072;-81
2022/08/04 07:22:50;;;;;;;25.17;5.20;;;;;;;27.47;42.95;100874.88;1782671;79;21637;-81
2022/08/04 07:25:17;;;;;;;18.73;4.97;;;;;;;27.45;42.94;100876.66;1769554;80;21982;-81
2022/08/04 07:27:43;;;;;;;23.77;5.28;;;;;;;27.46;42.93;100874.07;1781058;80;21110;-81
2022/08/04 07:30:10;;;;;;;22.13;4.45;;;;;;;27.46;42.89;100869.06;1781054;80;21533;-81
2022/08/04 07:32:37;;;;;;;12.18;3.00;;;;;;;27.46;42.88;100865.69;1783638;78;21061;-80
2022/08/04 07:35:07;;;;;;;18.12;4.30;;;;;;;27.45;42.64;100858.50;1806755;77;21037;-80
2022/08/04 07:37:34;;;;;;;14.25;4.65;;;;;;;27.45;42.66;100856.29;1764385;81;21301;-81
2022/08/04 07:40:01;;;;;;;19.87;4.12;;;;;;;27.45;42.65;100861.30;1764690;80;20946;-81
2022/08/04 07:42:27;;;;;;;12.78;3.45;;;;;;;27.46;42.66;100856.48;1788025;80;21050;-81
2022/08/04 07:44:54;;;;;;;6.12;2.75;;;;;;;27.45;42.60;100855.70;1838553;77;21123;-81
2022/08/04 07:47:20;;;;;;;10.78;3.50;;;;;;;27.46;42.46;100853.11;1728626;80;22139;-81
2022/08/04 07:49:47;;;;;;;12.68;4.33;;;;;;;27.46;42.46;100850.90;1761065;80;21609;-81
2022/08/04 07:52:13;;;;;;;11.48;3.10;;;;;;;27.47;42.48;100850.58;1765821;80;21039;-82
2022/08/04 07:54:40;;;;;;;14.68;3.72;;;;;;;27.48;42.44;100850.00;1765243;80;21048;-81
2022/08/04 07:57:06;;;;;;;11.53;3.25;;;;;;;27.48;42.55;100848.59;1750828;80;21107;-80
2022/08/04 07:59:33;;;;;;;13.45;3.87;;;;;;;27.49;42.55;100853.02;1764926;80;21476;-80
2022/08/04 08:02:00;;;;;;;6.67;2.83;;;;;;;27.49;42.54;100841.84;1746914;79;21499;-81
2022/08/04 08:04:26;;;;;;;8.40;2.98;;;;;;;27.50;42.54;100847.63;1757954;79;21020;-80
2022/08/04 08:06:52;;;;;;;10.30;2.90;;;;;;;27.50;42.54;100842.05;1755259;80;21047;-81
2022/08/04 08:09:22;;;;;;;7.53;2.65;;;;;;;27.48;42.54;100843.83;1759860;79;21040;-81
2022/08/04 08:11:51;;;;;;;10.13;2.95;;;;;;;27.48;42.56;100844.41;1773722;79;21095;-82
2022/08/04 08:14:18;;;;;;;8.25;2.75;;;;;;;27.49;42.56;100848.25;1769195;79;21070;-82
2022/08/04 08:16:45;;;;;;;8.85;2.90;;;;;;;27.50;42.44;100839.25;1748699;79;21063;-81
2022/08/04 08:19:12;;;;;;;7.95;2.90;;;;;;;27.49;42.45;100844.05;1749237;80;21624;-82
2022/08/04 08:21:38;;;;;;;5.45;2.55;;;;;;;27.50;42.42;100844.25;1754255;80;21123;-81
2022/08/04 08:24:05;;;;;;;9.28;2.45;;;;;;;27.51;42.48;100840.87;1763899;79;21043;-81
2022/08/04 08:26:32;;;;;;;10.28;2.50;;;;;;;27.52;42.40;100839.70;1768999;79;21991;-80
2022/08/04 08:28:58;;;;;;;5.33;2.22;;;;;;;27.52;42.28;100841.11;1769221;79;21078;-82
2022/08/04 08:31:25;;;;;;;6.42;2.40;;;;;;;27.51;42.29;100850.66;1764619;79;21074;-81
2022/08/04 08:33:52;;;;;;;11.25;2.95;;;;;;;27.51;42.23;100849.26;1745442;80;21155;-82
2022/08/04 08:36:46;;;;;;;6.53;2.40;;;;;;;27.51;42.22;100843.67;1760182;80;21400;-81
2022/08/04 08:39:31;;;;;;;6.17;2.70;;;;;;;27.52;42.17;100842.50;1756537;80;21218;-81
2022/08/04 08:42:21;;;;;;;6.60;2.37;;;;;;;27.52;42.12;100846.11;1761606;80;21119;-81
2022/08/04 08:45:20;;;;;;;4.20;2.35;;;;;;;27.53;42.08;100841.34;1756889;80;21067;-81
2022/08/04 08:48:09;;;;;;;8.23;2.20;;;;;;;27.53;42.01;100847.73;1776897;80;20992;-80
2022/08/04 08:51:30;;;;;;;7.12;2.05;;;;;;;27.53;41.95;100843.55;1778513;80;21032;-80
2022/08/04 08:54:33;;;;;;;6.12;2.10;;;;;;;27.55;41.95;100845.38;1767667;79;21125;-80
2022/08/04 08:57:31;;;;;;;2.40;2.20;;;;;;;27.54;41.90;100841.56;1756742;80;21005;-81
2022/08/04 09:00:29;;;;;;;3.10;2.00;;;;;;;27.52;41.79;100846.11;1746641;80;21135;-80
2022/08/04 09:03:07;;;;;;;4.90;2.30;;;;;;;27.52;41.71;100840.52;1764728;80;21051;-81
2022/08/04 09:06:07;;;;;;;7.55;2.50;;;;;;;27.52;41.68;100838.31;1748979;82;21040;-80
2022/08/04 09:09:24;;;;;;;10.13;3.40;;;;;;;27.51;41.64;100826.91;1791171;78;21656;-80
2022/08/04 09:12:13;;;;;;;18.30;3.52;;;;;;;27.51;41.70;100831.09;1795150;79;21002;-80
2022/08/04 09:14:47;;;;;;;29.30;6.67;;;;;;;27.52;41.74;100835.52;1794775;79;21033;-80
2022/08/04 09:17:28;;;;;;;21.80;5.72;;;;;;;27.51;41.80;100819.92;1784064;79;21501;-81
2022/08/04 09:20:11;;;;;;;9.73;4.17;;;;;;;27.52;41.85;100822.94;1770418;79;21064;-81
2022/08/04 09:22:51;;;;;;;14.63;3.90;;;;;;;27.54;41.95;100826.98;1783571;79;22001;-81
2022/08/04 09:25:29;;;;;;;7.97;2.75;;;;;;;27.54;41.98;100817.81;1775561;79;21060;-81
2022/08/04 09:28:04;;;;;;;8.33;3.20;;;;;;;27.53;42.01;100810.02;1765839;80;21060;-81
2022/08/04 09:30:44;;;;;;;8.83;2.60;;;;;;;27.55;41.94;100820.22;1766063;81;21094;-81
2022/08/04 09:33:37;;;;;;;4.28;2.22;;;;;;;27.55;41.79;100806.84;1766302;81;21032;-81
2022/08/04 09:36:48;;;;;;;5.10;2.15;;;;;;;27.57;41.80;100808.11;1767761;79;22042;-81
2022/08/04 09:39:29;;;;;;;;;;;;;;;27.57;41.78;100815.67;1722608;81;22072;-81
2022/08/04 09:42:13;;;;;;;5.22;2.20;;;;;;;27.55;41.71;100810.45;1766117;80;20177;-80
2022/08/04 09:45:05;;;;;;;6.25;2.40;;;;;;;27.57;41.76;100805.89;1765682;81;21025;-81
2022/08/04 09:47:58;;;;;;;4.92;2.40;;;;;;;27.58;41.56;100808.31;1772242;79;21088;-82
2022/08/04 09:50:32;;;;;;;6.55;3.37;;;;;;;27.60;41.49;100812.14;1767197;79;21516;-80
2022/08/04 09:53:37;;;;;;;5.87;1.90;;;;;;;27.58;41.32;100801.32;1771840;79;20967;-81
2022/08/04 09:56:16;;;;;;;;;;;;;;;27.57;41.13;100805.31;1691144;79;21076;-82
2022/08/04 09:59:12;;;;;;;4.50;2.15;;;;;;;27.56;41.07;100804.27;1784698;79;20194;-81
2022/08/04 10:01:38;;;;;;;5.55;2.10;;;;;;;27.56;41.06;100800.89;1774975;79;20993;-82
2022/08/04 10:04:13;;;;;;;4.92;2.40;;;;;;;27.59;41.10;100805.73;1769338;79;21525;-82
2022/08/04 10:07:12;;;;;;;3.08;1.80;;;;;;;27.61;41.05;100799.80;1768663;80;21028;-81
2022/08/04 10:10:08;;;;;;;4.17;2.50;;;;;;;27.63;41.09;100798.83;1794207;79;21002;-82
2022/08/04 10:13:19;;;;;;;2.50;1.72;;;;;;;27.65;41.08;100793.70;1788510;79;21065;-82
2022/08/04 10:16:19;;;;;;;3.72;2.22;;;;;;;27.67;40.93;100789.93;1794077;79;21250;-81
2022/08/04 10:19:07;;;;;;;3.45;1.80;;;;;;;27.68;40.89;100788.17;1783894;78;21172;-82
2022/08/04 10:21:54;;;;;;;2.92;2.00;;;;;;;27.69;40.77;100787.01;1766053;80;21040;-82
2022/08/04 10:24:54;;;;;;;5.40;2.00;;;;;;;27.71;40.89;100779.63;1766829;79;20993;-81
2022/08/04 10:27:46;;;;;;;3.85;2.08;;;;;;;27.72;40.86;100777.06;1771346;79;22312;-80
2022/08/04 10:30:13;;;;;;;4.30;1.98;;;;;;;27.74;40.96;100776.13;1781688;80;21077;-81
2022/08/04 10:33:14;;;;;;;3.65;1.90;;;;;;;27.74;40.97;100776.71;1777988;79;21188;-81
2022/08/04 10:35:54;;;;;;;3.08;2.37;;;;;;;27.74;41.05;100778.92;1759433;79;20977;-81
2022/08/04 10:38:32;;;;;;;2.33;1.90;;;;;;;27.75;40.96;100769.95;1777382;79;21472;-81
2022/08/04 10:41:21;;;;;;;2.27;1.70;;;;;;;27.76;40.79;100770.15;1782428;79;20966;-82
2022/08/04 10:43:53;;;;;;;4.08;1.98;;;;;;;27.78;40.88;100774.80;1778878;79;21024;-82
2022/08/04 10:46:35;;;;;;;2.55;1.90;;;;;;;27.79;40.82;100777.23;1782383;79;21446;-81
2022/08/04 10:49:08;;;;;;;3.45;1.77;;;;;;;27.80;40.83;100773.83;1749902;80;21614;-81
2022/08/04 10:51:47;;;;;;;3.05;1.95;;;;;;;27.82;40.94;100772.30;1784638;79;21520;-82
2022/08/04 10:54:33;;;;;;;3.27;1.80;;;;;;;27.82;41.06;100772.30;1778843;79;21491;-81
2022/08/04 10:57:22;;;;;;;4.28;1.90;;;;;;;27.84;40.99;100763.56;1742604;81;21036;-81
2022/08/04 10:59:59;;;;;;;3.20;1.70;;;;;;;27.83;40.98;100759.95;1792304;79;21555;-81
2022/08/04 11:02:50;;;;;;;4.85;1.90;;;;;;;27.83;41.13;100761.34;1797442;79;21029;-81
2022/08/04 11:05:28;;;;;;;4.08;2.08;;;;;;;27.84;41.01;100769.93;1762877;79;21069;-81
2022/08/04 11:08:02;;;;;;;2.50;1.67;;;;;;;27.84;40.70;100769.93;1756485;81;21592;-81
2022/08/04 11:10:33;;;;;;;3.12;2.08;;;;;;;27.85;40.70;100763.17;1751882;81;21024;-81
2022/08/04 11:13:03;;;;;;;3.52;1.70;;;;;;;27.86;40.59;100769.57;1782397;79;21523;-80
2022/08/04 11:15:41;;;;;;;3.45;1.75;;;;;;;27.86;40.55;100762.00;1790452;79;21481;-81
2022/08/04 11:18:27;;;;;;;2.25;1.42;;;;;;;27.86;40.72;100757.80;1790175;79;21101;-82
2022/08/04 11:21:12;;;;;;;3.40;1.90;;;;;;;27.86;40.87;100755.59;1722243;82;21128;-82
2022/08/04 11:23:43;;;;;;;1.82;1.47;;;;;;;27.87;40.90;100756.63;1723396;82;21583;-81
2022/08/04 11:26:12;;;;;;;3.15;1.70;;;;;;;27.87;40.87;100757.22;1714137;82;21883;-82
2022/08/04 11:29:03;;;;;;;2.85;1.77;;;;;;;27.86;40.93;100745.22;1709966;83;21548;-81
2022/08/04 11:31:32;;;;;;;1.87;1.67;;;;;;;27.88;40.90;100746.27;1706446;83;21096;-81
2022/08/04 11:34:24;;;;;;;2.02;1.70;;;;;;;27.88;40.72;100746.27;1714385;82;21109;-82
2022/08/04 11:37:16;;;;;;;2.55;1.70;;;;;;;27.89;40.58;100752.86;1725205;83;21115;-81
2022/08/04 11:39:49;;;;;;;2.30;1.70;;;;;;;27.88;40.58;100745.64;1711560;82;21127;-81
2022/08/04 11:42:28;;;;;;;2.75;1.85;;;;;;;27.89;40.76;100750.06;1731838;82;21132;-82
2022/08/04 11:45:03;;;;;;;3.35;1.90;;;;;;;27.89;40.61;100744.48;1711108;82;21104;-82
2022/08/04 11:47:41;;;;;;;3.30;1.50;;;;;;;27.89;40.58;100740.87;1707123;82;21141;-82
2022/08/04 11:50:16;;;;;;;2.08;1.60;;;;;;;27.90;40.64;100734.92;1707198;84;21097;-81
2022/08/04 11:52:43;;;;;;;4.25;1.77;;;;;;;27.91;40.66;100730.95;1706511;82;21837;-81
2022/08/04 11:55:13;;;;;;;3.98;2.00;;;;;;;27.92;40.54;100726.17;1721038;82;21054;-81
2022/08/04 11:57:39;;;;;;;3.15;1.80;;;;;;;27.92;40.50;100720.58;1713303;82;22124;-82
2022/08/04 12:00:09;;;;;;;2.75;1.45;;;;;;;27.92;40.63;100717.16;1708589;82;21101;-82
2022/08/04 12:03:16;;;;;;;3.07;1.70;;;;;;;27.94;40.44;100718.20;1708369;82;21653;-82
2022/08/04 12:06:00;;;;;;;2.30;1.77;;;;;;;27.94;40.49;100719.02;1716635;82;21172;-80
2022/08/04 12:08:44;;;;;;;2.52;1.60;;;;;;;27.94;40.39;100715.41;1719009;82;21109;-81
2022/08/04 12:11:35;;;;;;;2.72;1.47;;;;;;;27.95;40.13;100711.44;1732108;82;21049;-81
2022/08/04 12:14:31;;;;;;;3.02;1.80;;;;;;;27.94;40.06;100709.23;1755861;79;21110;-81
2022/08/04 12:17:02;;;;;;;2.75;1.45;;;;;;;27.94;39.93;100713.42;1769834;80;21079;-82
2022/08/04 12:19:47;;;;;;;2.22;1.50;;;;;;;27.96;39.98;100711.08;1772682;80;21159;-81
2022/08/04 12:22:24;;;;;;;2.58;1.60;;;;;;;27.96;39.94;100712.48;1758480;80;21696;-81